Time;durP1;ratioP1;P1;durP2;ratioP2;P2;SDS_P1;SDS_P2;PMS_P1;PMS_P2;Temp;Humidity;BMP_temperature;BMP_pressure;BME280_temperature;BME280_humidity;BME280_pressure;Samples;Min_cycle;Max_cycle;Signal;HPM_P1;HPM_P2
2024/01/20 00:01:18;;;;;;;12.20;7.10;;;;;;;-0.54;100.00;100302.26;104705;1260;60496;-50
2024/01/20 00:03:46;;;;;;;10.30;5.90;;;;;;;-0.54;100.00;100307.02;104879;1261;60582;-51
2024/01/20 00:06:13;;;;;;;10.80;5.10;;;;;;;-0.55;100.00;100305.77;106696;1260;73882;-52
2024/01/20 00:08:41;;;;;;;10.30;6.40;;;;;;;-0.57;100.00;100302.58;104998;1257;66803;-50
2024/01/20 00:11:09;;;;;;;14.20;6.70;;;;;;;-0.61;100.00;100303.98;104728;1262;73215;-50
2024/01/20 00:13:36;;;;;;;16.30;6.70;;;;;;;-0.65;100.00;100303.95;104904;1260;60524;-50
2024/01/20 00:16:04;;;;;;;10.50;5.80;;;;;;;-0.67;100.00;100309.22;105382;1259;60533;-50
2024/01/20 00:18:32;;;;;;;12.50;5.90;;;;;;;-0.72;100.00;100313.79;105162;1261;73864;-50
2024/01/20 00:20:59;;;;;;;13.00;5.30;;;;;;;-0.76;100.00;100315.34;105349;1258;65983;-51
2024/01/20 00:23:27;;;;;;;9.20;4.80;;;;;;;-0.78;100.00;100315.70;104895;1259;72645;-48
2024/01/20 00:25:54;;;;;;;10.00;5.50;;;;;;;-0.80;100.00;100310.22;104765;1258;60620;-52
2024/01/20 00:28:22;;;;;;;8.50;4.60;;;;;;;-0.80;100.00;100312.51;104796;1261;60068;-51
2024/01/20 00:30:49;;;;;;;11.30;5.40;;;;;;;-0.78;100.00;100309.52;104620;1260;73788;-51
2024/01/20 00:33:17;;;;;;;9.20;4.90;;;;;;;-0.73;100.00;100308.30;108557;1257;67003;-52
2024/01/20 00:35:45;;;;;;;13.00;6.50;;;;;;;-0.69;100.00;100309.22;106698;1260;71496;-51
2024/01/20 00:38:13;;;;;;;11.70;6.80;;;;;;;-0.68;100.00;100311.52;104591;1262;60555;-52
2024/01/20 00:40:40;;;;;;;9.70;5.30;;;;;;;-0.66;100.00;100320.69;105170;1261;60422;-51
2024/01/20 00:43:07;;;;;;;13.80;7.10;;;;;;;-0.66;100.00;100325.44;105242;1255;72427;-53
2024/01/20 00:45:35;;;;;;;10.90;5.20;;;;;;;-0.68;100.00;100340.42;104647;1261;65935;-53
2024/01/20 00:48:04;;;;;;;10.50;6.50;;;;;;;-0.74;100.00;100340.20;104808;1261;71472;-52
2024/01/20 00:50:31;;;;;;;11.50;5.30;;;;;;;-0.81;100.00;100329.59;107941;1258;60620;-52
2024/01/20 00:52:58;;;;;;;9.40;5.20;;;;;;;-0.84;100.00;100324.45;104940;1258;59648;-53
2024/01/20 00:55:26;;;;;;;9.90;5.20;;;;;;;-0.84;100.00;100326.38;108779;1255;72712;-53
2024/01/20 00:57:53;;;;;;;10.30;5.30;;;;;;;-0.81;100.00;100336.80;104563;1258;67191;-53
2024/01/20 01:00:20;;;;;;;12.60;6.60;;;;;;;-0.78;100.00;100336.48;104836;1258;72500;-53
2024/01/20 01:02:47;;;;;;;9.90;5.00;;;;;;;-0.76;100.00;100333.84;104970;1262;60568;-52
2024/01/20 01:05:15;;;;;;;11.60;5.80;;;;;;;-0.78;100.00;100335.61;108855;1257;59057;-54
2024/01/20 01:07:42;;;;;;;14.50;6.40;;;;;;;-0.81;100.00;100332.94;104664;1263;72578;-52
2024/01/20 01:10:09;;;;;;;13.00;6.60;;;;;;;-0.85;100.00;100337.31;104721;1257;66514;-53
2024/01/20 01:12:37;;;;;;;11.80;6.90;;;;;;;-0.87;100.00;100339.77;104871;1258;71708;-53
2024/01/20 01:15:04;;;;;;;12.30;6.20;;;;;;;-0.90;100.00;100337.27;104582;1257;61123;-52
2024/01/20 01:17:32;;;;;;;9.00;4.70;;;;;;;-0.94;100.00;100340.42;104829;1261;60386;-53
2024/01/20 01:20:00;;;;;;;9.10;5.00;;;;;;;-0.98;100.00;100335.63;108970;1257;72625;-53
2024/01/20 01:22:28;;;;;;;11.00;5.20;;;;;;;-0.99;100.00;100339.48;108816;1258;65762;-54
2024/01/20 01:24:55;;;;;;;12.40;5.40;;;;;;;-1.00;100.00;100344.42;105676;1258;72673;-54
2024/01/20 01:27:22;;;;;;;7.70;3.90;;;;;;;-0.97;100.00;100341.99;104597;1261;60804;-54
2024/01/20 01:29:50;;;;;;;9.60;4.80;;;;;;;-0.94;100.00;100340.77;104672;1260;149202;-53
2024/01/20 01:33:31;;;;;;;9.80;5.20;;;;;;;-0.91;100.00;100420.06;102139;1292;601447;-52
2024/01/20 01:35:58;;;;;;;13.60;6.60;;;;;;;-0.95;100.00;100430.98;104238;1267;59594;-53
2024/01/20 01:38:26;;;;;;;8.10;4.60;;;;;;;-1.00;100.00;100416.48;104257;1267;59388;-52
2024/01/20 01:40:53;;;;;;;9.10;5.50;;;;;;;-1.07;100.00;100417.30;104311;1269;72201;-52
2024/01/20 01:43:20;;;;;;;11.00;6.00;;;;;;;-1.13;100.00;100410.72;104103;1269;66980;-53
2024/01/20 01:45:47;;;;;;;10.50;6.10;;;;;;;-1.20;100.00;100410.84;106084;1267;72603;-53
2024/01/20 01:48:15;;;;;;;13.10;5.80;;;;;;;-1.23;100.00;100414.50;103986;1266;130989;-54
2024/01/20 01:50:42;;;;;;;9.30;5.30;;;;;;;-1.25;100.00;100411.14;104205;1262;60625;-53
2024/01/20 01:53:10;;;;;;;14.30;5.20;;;;;;;-1.27;100.00;100412.34;104359;1269;70781;-53
2024/01/20 01:55:37;;;;;;;10.30;4.70;;;;;;;-1.30;100.00;100403.88;104031;1264;67743;-52
2024/01/20 01:58:04;;;;;;;12.10;5.10;;;;;;;-1.29;100.00;100407.77;104081;1267;71398;-52
2024/01/20 02:00:32;;;;;;;10.00;4.50;;;;;;;-1.26;100.00;100413.05;104365;1268;59720;-52
2024/01/20 02:02:59;;;;;;;12.50;6.60;;;;;;;-1.25;100.00;100410.42;104833;1264;60350;-52
2024/01/20 02:05:26;;;;;;;10.40;4.60;;;;;;;-1.27;100.00;100414.10;104289;1263;72883;-51
2024/01/20 02:07:54;;;;;;;11.10;6.30;;;;;;;-1.28;100.00;100420.80;104097;1263;65528;-53
2024/01/20 02:10:21;;;;;;;13.50;7.10;;;;;;;-1.30;100.00;100417.79;104384;1267;71917;-53
2024/01/20 02:12:48;;;;;;;12.40;5.40;;;;;;;-1.34;100.00;100415.09;104270;1263;59730;-56
2024/01/20 02:15:16;;;;;;;12.70;6.20;;;;;;;-1.41;100.00;100413.96;104258;1264;59762;-55
2024/01/20 02:17:52;;;;;;;15.60;7.20;;;;;;;-1.48;100.00;100420.05;105088;1264;72888;-54
2024/01/20 02:20:19;;;;;;;17.20;6.70;;;;;;;-1.54;100.00;100430.73;105910;1264;65355;-55
2024/01/20 02:22:47;;;;;;;10.20;5.00;;;;;;;-1.57;100.00;100432.11;104231;1264;72665;-55
2024/01/20 02:25:14;;;;;;;11.30;5.80;;;;;;;-1.56;100.00;100438.98;104345;1270;60823;-55
2024/01/20 02:27:41;;;;;;;11.80;5.80;;;;;;;-1.51;100.00;100434.98;104254;1263;59742;-53
2024/01/20 02:30:09;;;;;;;12.00;5.90;;;;;;;-1.47;100.00;100438.02;104787;1269;73124;-56
2024/01/20 02:32:37;;;;;;;11.00;5.90;;;;;;;-1.44;100.00;100436.64;104341;1264;65763;-55
2024/01/20 02:35:04;;;;;;;18.90;8.00;;;;;;;-1.43;100.00;100441.23;104353;1265;72633;-55
2024/01/20 02:37:32;;;;;;;14.70;6.30;;;;;;;-1.43;100.00;100435.41;105923;1266;59660;-54
2024/01/20 02:39:59;;;;;;;12.70;5.90;;;;;;;-1.48;100.00;100443.99;104299;1263;60074;-55
2024/01/20 02:42:26;;;;;;;12.20;7.10;;;;;;;-1.54;100.00;100450.80;104479;1269;73076;-55
2024/01/20 02:44:54;;;;;;;15.60;7.00;;;;;;;-1.57;100.00;100457.80;104311;1269;65647;-55
2024/01/20 02:47:21;;;;;;;15.80;7.30;;;;;;;-1.61;100.00;100463.91;104426;1263;74411;-55
2024/01/20 02:49:48;;;;;;;14.00;6.70;;;;;;;-1.65;100.00;100461.40;104198;1269;60908;-56
2024/01/20 02:52:16;;;;;;;13.00;6.20;;;;;;;-1.67;100.00;100458.56;104990;1260;60009;-55
2024/01/20 02:54:43;;;;;;;11.70;5.30;;;;;;;-1.65;100.00;100462.80;104355;1266;73965;-55
2024/01/20 02:57:10;;;;;;;10.40;5.80;;;;;;;-1.61;100.00;100466.21;104229;1261;65823;-53
2024/01/20 02:59:38;;;;;;;13.40;7.60;;;;;;;-1.55;100.00;100471.73;104411;1263;72707;-55
2024/01/20 03:02:05;;;;;;;11.40;6.50;;;;;;;-1.48;100.00;100483.25;104390;1260;59636;-55
2024/01/20 03:04:33;;;;;;;16.30;6.80;;;;;;;-1.46;100.00;100490.15;104540;1267;59805;-55
2024/01/20 03:07:00;;;;;;;12.80;6.60;;;;;;;-1.44;100.00;100491.73;104949;1260;71736;-55
2024/01/20 03:09:28;;;;;;;14.10;8.00;;;;;;;-1.46;100.00;100489.98;104182;1263;67100;-55
2024/01/20 03:11:55;;;;;;;14.70;7.40;;;;;;;-1.48;100.00;100493.10;104648;1261;71557;-56
2024/01/20 03:14:23;;;;;;;11.50;6.70;;;;;;;-1.52;100.00;100494.64;104625;1263;59561;-54
2024/01/20 03:16:50;;;;;;;13.60;7.00;;;;;;;-1.56;100.00;100502.00;104389;1260;60102;-53
2024/01/20 03:19:17;;;;;;;11.20;5.20;;;;;;;-1.58;100.00;100500.73;104478;1265;74409;-54
2024/01/20 03:21:45;;;;;;;11.30;5.90;;;;;;;-1.58;100.00;100499.67;104475;1260;66905;-55
2024/01/20 03:24:12;;;;;;;14.10;7.40;;;;;;;-1.56;100.00;100505.34;104235;1266;73135;-54
2024/01/20 03:26:44;;;;;;;15.00;7.50;;;;;;;-1.56;100.00;100504.98;105035;1260;59767;-54
2024/01/20 03:29:12;;;;;;;17.70;7.70;;;;;;;-1.56;100.00;100503.23;105045;1262;59734;-55
2024/01/20 03:31:39;;;;;;;16.70;9.00;;;;;;;-1.56;100.00;100499.53;104349;1260;73448;-55
2024/01/20 03:34:06;;;;;;;12.30;7.40;;;;;;;-1.57;100.00;100503.23;104436;1263;66918;-55
2024/01/20 03:36:34;;;;;;;14.80;8.10;;;;;;;-1.59;100.00;100505.27;104322;1263;72533;-55
2024/01/20 03:39:02;;;;;;;18.30;8.00;;;;;;;-1.64;100.00;100509.29;104553;1260;59780;-54
2024/01/20 03:41:29;;;;;;;16.30;7.40;;;;;;;-1.66;100.00;100511.89;104502;1266;59698;-54
2024/01/20 03:43:57;;;;;;;9.80;5.60;;;;;;;-1.67;100.00;100519.80;104510;1266;73538;-54
2024/01/20 03:46:25;;;;;;;16.30;7.20;;;;;;;-1.66;100.00;100522.27;104408;1262;66932;-56
2024/01/20 03:48:52;;;;;;;12.90;7.00;;;;;;;-1.65;100.00;100519.30;104474;1266;75323;-55
2024/01/20 03:51:22;;;;;;;18.90;8.20;;;;;;;-1.65;100.00;100529.86;104285;1266;59806;-55
2024/01/20 03:53:50;;;;;;;12.80;7.00;;;;;;;-1.66;100.00;100537.95;108574;1260;58847;-55
2024/01/20 03:56:18;;;;;;;18.50;9.00;;;;;;;-1.68;100.00;100539.13;108592;1260;73107;-55
2024/01/20 03:58:45;;;;;;;16.40;9.40;;;;;;;-1.71;100.00;100545.45;108701;1260;66910;-55
2024/01/20 04:01:12;;;;;;;20.70;9.60;;;;;;;-1.73;100.00;100549.11;108545;1263;71423;-56
2024/01/20 04:03:39;;;;;;;16.80;8.60;;;;;;;-1.76;100.00;100551.52;105281;1264;59758;-55
2024/01/20 04:06:07;;;;;;;15.10;8.60;;;;;;;-1.80;100.00;100555.00;104513;1266;59724;-56
2024/01/20 04:08:35;;;;;;;13.60;8.10;;;;;;;-1.85;100.00;100550.16;104492;1263;71791;-54
2024/01/20 04:11:03;;;;;;;19.10;7.60;;;;;;;-1.86;100.00;100556.13;104444;1260;65659;-55
2024/01/20 04:13:30;;;;;;;13.30;7.40;;;;;;;-1.84;100.00;100560.21;104426;1261;72627;-55
2024/01/20 04:15:57;;;;;;;14.50;7.40;;;;;;;-1.81;100.00;100560.95;104313;1263;59657;-54
2024/01/20 04:18:24;;;;;;;16.40;8.00;;;;;;;-1.78;100.00;100563.10;104459;1260;59968;-54
2024/01/20 04:20:52;;;;;;;16.30;8.10;;;;;;;-1.77;100.00;100566.64;104426;1263;70834;-54
2024/01/20 04:23:19;;;;;;;15.30;8.00;;;;;;;-1.77;100.00;100568.92;104562;1260;65738;-54
2024/01/20 04:25:47;;;;;;;11.80;6.70;;;;;;;-1.79;100.00;100572.42;104431;1263;70959;-55
2024/01/20 04:28:14;;;;;;;17.40;9.50;;;;;;;-1.82;100.00;100572.73;104501;1264;59944;-55
2024/01/20 04:30:42;;;;;;;14.80;7.50;;;;;;;-1.85;100.00;100577.61;108602;1260;59186;-55
2024/01/20 04:33:09;;;;;;;16.60;8.10;;;;;;;-1.87;100.00;100574.41;104852;1263;72333;-55
2024/01/20 04:35:36;;;;;;;17.30;7.60;;;;;;;-1.89;100.00;100583.37;104562;1261;65697;-55
2024/01/20 04:38:04;;;;;;;16.10;7.60;;;;;;;-1.88;100.00;100587.77;104427;1264;72340;-55
2024/01/20 04:40:31;;;;;;;10.50;6.70;;;;;;;-1.87;100.00;100591.30;104378;1263;59743;-55
2024/01/20 04:42:58;;;;;;;13.80;7.90;;;;;;;-1.84;100.00;100598.55;104746;1257;60118;-54
2024/01/20 04:45:26;;;;;;;14.90;8.40;;;;;;;-1.80;100.00;100593.87;104666;1257;72859;-55
2024/01/20 04:47:53;;;;;;;16.50;9.50;;;;;;;-1.75;100.00;100601.68;104814;1258;67088;-54
2024/01/20 04:50:20;;;;;;;18.30;9.80;;;;;;;-1.72;100.00;100604.90;104769;1258;72720;-53
2024/01/20 04:52:48;;;;;;;19.60;10.50;;;;;;;-1.71;100.00;100605.45;104768;1263;59664;-55
2024/01/20 04:55:15;;;;;;;18.30;10.50;;;;;;;-1.73;100.00;100610.18;104784;1258;59756;-55
2024/01/20 04:57:42;;;;;;;17.80;9.60;;;;;;;-1.78;100.00;100609.91;104560;1257;73944;-56
2024/01/20 05:00:10;;;;;;;20.70;9.90;;;;;;;-1.85;100.00;100613.33;104711;1262;65504;-56
2024/01/20 05:02:37;;;;;;;18.80;8.80;;;;;;;-1.91;100.00;100620.98;104856;1254;72704;-55
2024/01/20 05:05:05;;;;;;;17.70;8.80;;;;;;;-1.94;100.00;100614.95;104976;1254;60930;-54
2024/01/20 05:07:32;;;;;;;17.70;8.00;;;;;;;-1.95;100.00;100617.02;104755;1254;60051;-54
2024/01/20 05:09:59;;;;;;;15.80;7.70;;;;;;;-1.97;100.00;100624.23;105204;1254;73106;-55
2024/01/20 05:12:28;;;;;;;16.60;9.30;;;;;;;-1.98;100.00;100625.61;104955;1257;66019;-54
2024/01/20 05:14:55;;;;;;;18.50;8.20;;;;;;;-2.00;100.00;100628.58;105884;1257;72708;-55
2024/01/20 05:17:23;;;;;;;13.50;7.20;;;;;;;-2.03;100.00;100627.29;105050;1254;59759;-55
2024/01/20 05:19:50;;;;;;;15.60;7.80;;;;;;;-2.09;100.00;100634.92;104843;1254;59947;-53
2024/01/20 05:22:18;;;;;;;14.90;7.70;;;;;;;-2.15;100.00;100641.16;104992;1253;71972;-57
2024/01/20 05:24:46;;;;;;;13.70;7.60;;;;;;;-2.21;100.00;100643.86;105277;1254;66861;-51
2024/01/20 05:27:14;;;;;;;16.10;7.60;;;;;;;-2.25;100.00;100654.34;104960;1257;73081;-54
2024/01/20 05:29:41;;;;;;;17.80;7.70;;;;;;;-2.24;100.00;100663.34;105067;1257;59708;-56
2024/01/20 05:32:09;;;;;;;13.70;7.10;;;;;;;-2.23;100.00;100671.63;105156;1254;60062;-54
2024/01/20 05:34:36;;;;;;;17.10;8.30;;;;;;;-2.19;100.00;100678.89;105156;1254;73274;-55
2024/01/20 05:37:04;;;;;;;13.70;6.50;;;;;;;-2.15;100.00;100682.84;104998;1257;65146;-56
2024/01/20 05:39:31;;;;;;;13.60;6.80;;;;;;;-2.14;100.00;100687.42;104839;1259;71478;-55
2024/01/20 05:41:58;;;;;;;12.60;6.60;;;;;;;-2.18;100.00;100685.23;104936;1268;60544;-56
2024/01/20 05:44:26;;;;;;;11.50;6.70;;;;;;;-2.24;100.00;100686.36;104974;1254;60547;-55
2024/01/20 05:46:53;;;;;;;14.70;7.10;;;;;;;-2.34;100.00;100686.70;105075;1254;74295;-56
2024/01/20 05:49:21;;;;;;;14.50;7.10;;;;;;;-2.45;100.00;100687.73;104866;1254;67623;-54
2024/01/20 05:51:48;;;;;;;14.50;6.70;;;;;;;-2.53;100.00;100689.34;105451;1253;73110;-56
2024/01/20 05:54:16;;;;;;;9.30;5.30;;;;;;;-2.58;100.00;100688.02;104818;1254;60905;-54
2024/01/20 05:56:43;;;;;;;12.30;6.20;;;;;;;-2.61;100.00;100690.92;104926;1260;60492;-55
2024/01/20 05:59:10;;;;;;;13.30;6.70;;;;;;;-2.62;100.00;100705.85;104863;1252;73888;-55
2024/01/20 06:01:38;;;;;;;13.40;6.20;;;;;;;-2.64;100.00;100706.52;104646;1253;66347;-56
2024/01/20 06:04:05;;;;;;;14.30;6.50;;;;;;;-2.71;100.00;100712.53;105078;1259;73062;-55
2024/01/20 06:06:32;;;;;;;12.90;6.70;;;;;;;-2.78;100.00;100720.45;104995;1256;60466;-54
2024/01/20 06:09:00;;;;;;;10.60;5.40;;;;;;;-2.83;100.00;100723.17;106342;1253;60478;-55
2024/01/20 06:11:27;;;;;;;11.00;5.40;;;;;;;-2.85;100.00;100723.83;104913;1253;72654;-54
2024/01/20 06:13:54;;;;;;;13.70;5.20;;;;;;;-2.85;100.00;100728.73;104870;1256;67415;-53
2024/01/20 06:16:22;;;;;;;14.80;6.70;;;;;;;-2.83;100.00;100732.85;104961;1255;72734;-56
2024/01/20 06:18:49;;;;;;;17.70;6.50;;;;;;;-2.79;100.00;100740.13;104807;1255;60549;-56
2024/01/20 06:21:21;;;;;;;12.20;6.30;;;;;;;-2.76;100.00;100741.95;104770;1253;60341;-56
2024/01/20 06:23:49;;;;;;;12.90;6.30;;;;;;;-2.74;100.00;100743.23;105587;1254;74196;-56
2024/01/20 06:26:17;;;;;;;16.70;7.00;;;;;;;-2.72;100.00;100749.92;104966;1253;65654;-55
2024/01/20 06:28:44;;;;;;;12.10;6.20;;;;;;;-2.75;100.00;100751.82;104707;1256;73167;-56
2024/01/20 06:31:24;;;;;;;16.50;7.90;;;;;;;-2.79;100.00;100755.75;105019;1254;60551;-55
2024/01/20 06:33:52;;;;;;;15.60;7.60;;;;;;;-2.82;100.00;100761.86;104979;1254;60629;-54
2024/01/20 06:36:26;;;;;;;15.00;6.70;;;;;;;-2.81;100.00;100760.98;105327;1256;73812;-55
2024/01/20 06:38:54;;;;;;;7.30;3.90;;;;;;;-2.80;100.00;100763.27;105268;1257;66908;-54
2024/01/20 06:41:22;;;;;;;15.60;6.30;;;;;;;-2.77;100.00;100760.55;105720;1254;73111;-55
2024/01/20 06:43:49;;;;;;;15.50;5.60;;;;;;;-2.71;100.00;100763.30;105057;1254;60427;-55
2024/01/20 06:46:16;;;;;;;12.50;6.70;;;;;;;-2.68;100.00;100765.48;105158;1254;60420;-56
2024/01/20 06:48:44;;;;;;;12.20;6.40;;;;;;;-2.64;100.00;100765.20;104955;1257;72975;-55
2024/01/20 06:51:14;;;;;;;13.50;6.30;;;;;;;-2.62;100.00;100768.05;104911;1254;67572;-55
2024/01/20 06:53:43;;;;;;;15.70;6.00;;;;;;;-2.59;100.00;100776.03;107168;1257;72821;-55
2024/01/20 06:56:11;;;;;;;14.00;6.10;;;;;;;-2.57;100.00;100776.07;109131;1253;58353;-53
2024/01/20 06:58:39;;;;;;;11.00;5.80;;;;;;;-2.57;100.00;100779.05;109213;1253;60075;-56
2024/01/20 07:01:06;;;;;;;13.20;5.40;;;;;;;-2.57;100.00;100784.50;109173;1254;73918;-56
2024/01/20 07:03:33;;;;;;;10.30;5.30;;;;;;;-2.57;100.00;100787.67;107280;1257;65485;-56
2024/01/20 07:06:02;;;;;;;11.90;5.50;;;;;;;-2.56;100.00;100785.95;105055;1257;72623;-55
2024/01/20 07:08:30;;;;;;;11.20;4.80;;;;;;;-2.53;100.00;100786.01;109273;1253;59656;-55
2024/01/20 07:10:57;;;;;;;12.80;5.20;;;;;;;-2.47;100.00;100793.85;109119;1253;58739;-56
2024/01/20 07:13:25;;;;;;;9.60;4.80;;;;;;;-2.41;100.00;100796.63;106444;1254;71686;-55
2024/01/20 07:15:53;;;;;;;13.10;5.70;;;;;;;-2.32;100.00;100800.84;109059;1254;67391;-56
2024/01/20 07:18:20;;;;;;;10.80;6.00;;;;;;;-2.26;100.00;100806.95;108194;1254;71696;-55
2024/01/20 07:20:47;;;;;;;11.00;5.50;;;;;;;-2.20;100.00;100811.45;109084;1257;59225;-56
2024/01/20 07:23:15;;;;;;;13.30;6.60;;;;;;;-2.15;100.00;100813.14;106445;1257;60649;-55
2024/01/20 07:25:42;;;;;;;10.50;5.40;;;;;;;-2.13;100.00;100813.89;104941;1253;73064;-56
2024/01/20 07:28:10;;;;;;;9.50;6.20;;;;;;;-2.11;100.00;100819.36;104986;1254;67415;-54
2024/01/20 07:30:37;;;;;;;11.20;5.40;;;;;;;-2.11;100.00;100818.30;105038;1254;71246;-54
2024/01/20 07:33:05;;;;;;;12.00;6.70;;;;;;;-2.12;100.00;100817.23;105016;1254;60514;-54
2024/01/20 07:35:32;;;;;;;13.80;7.40;;;;;;;-2.14;100.00;100817.03;105089;1254;60508;-55
2024/01/20 07:37:59;;;;;;;13.20;6.90;;;;;;;-2.15;100.00;100820.17;104997;1252;72572;-52
2024/01/20 07:40:27;;;;;;;11.60;6.30;;;;;;;-2.15;100.00;100822.65;104918;1254;65531;-55
2024/01/20 07:42:54;;;;;;;12.70;5.40;;;;;;;-2.13;100.00;100823.73;105099;1254;71467;-53
2024/01/20 07:45:22;;;;;;;11.60;5.70;;;;;;;-2.12;100.00;100829.20;105051;1258;61762;-55
2024/01/20 07:47:50;;;;;;;8.20;5.40;;;;;;;-2.09;100.00;100828.91;104885;1254;60544;-55
2024/01/20 07:50:17;;;;;;;9.00;4.40;;;;;;;-2.06;100.00;100828.10;104774;1251;72981;-54
2024/01/20 07:52:45;;;;;;;11.40;5.50;;;;;;;-1.99;100.00;100835.27;105061;1254;66996;-54
2024/01/20 07:55:12;;;;;;;9.50;5.10;;;;;;;-1.93;100.00;100837.67;104982;1253;72938;-56
2024/01/20 07:57:39;;;;;;;9.30;4.30;;;;;;;-1.87;100.00;100839.70;105041;1257;60887;-56
2024/01/20 08:00:08;;;;;;;8.50;4.50;;;;;;;-1.83;100.00;100845.07;105274;1254;60595;-56
2024/01/20 08:02:35;;;;;;;10.50;4.40;;;;;;;-1.81;100.00;100855.30;105645;1254;72568;-56
2024/01/20 08:05:03;;;;;;;8.80;4.40;;;;;;;-1.80;100.00;100856.75;104761;1257;67691;-55
2024/01/20 08:07:34;;;;;;;7.70;4.50;;;;;;;-1.81;100.00;100854.97;105296;1260;71546;-54
2024/01/20 08:10:01;;;;;;;11.50;5.00;;;;;;;-1.84;100.00;100858.77;104771;1257;60444;-54
2024/01/20 08:12:29;;;;;;;9.20;4.20;;;;;;;-1.88;100.00;100859.40;104941;1258;60587;-53
2024/01/20 08:14:56;;;;;;;10.80;5.00;;;;;;;-1.92;100.00;100861.44;105344;1254;74453;-55
2024/01/20 08:17:24;;;;;;;11.20;6.00;;;;;;;-1.97;100.00;100862.92;104974;1254;70421;-56
2024/01/20 08:19:51;;;;;;;12.50;6.00;;;;;;;-2.00;100.00;100866.39;104996;1253;72412;-54
2024/01/20 08:22:19;;;;;;;11.20;5.10;;;;;;;-2.01;100.00;100867.42;104921;1255;60648;-54
2024/01/20 08:24:47;;;;;;;10.60;5.60;;;;;;;-2.01;100.00;100872.16;105352;1258;60521;-55
2024/01/20 08:27:14;;;;;;;10.60;4.50;;;;;;;-1.98;100.00;100878.02;105120;1254;73217;-54
2024/01/20 08:29:42;;;;;;;8.00;4.50;;;;;;;-1.94;100.00;100879.34;105057;1256;67226;-55
2024/01/20 08:32:09;;;;;;;12.70;4.60;;;;;;;-1.89;100.00;100886.83;104793;1255;71426;-54
2024/01/20 08:34:37;;;;;;;8.30;3.90;;;;;;;-1.84;100.00;100887.09;104744;1259;60721;-55
2024/01/20 08:37:04;;;;;;;9.20;4.10;;;;;;;-1.79;100.00;100891.25;104770;1254;60459;-54
2024/01/20 08:39:32;;;;;;;6.40;2.10;;;;;;;-1.77;100.00;100888.11;105095;1254;73772;-54
2024/01/20 08:41:59;;;;;;;6.30;2.60;;;;;;;-1.76;100.00;100891.84;105049;1258;66718;-55
2024/01/20 08:44:26;;;;;;;5.70;2.40;;;;;;;-1.76;100.00;100889.53;104922;1258;73748;-55
2024/01/20 08:46:54;;;;;;;7.00;2.40;;;;;;;-1.77;100.00;100890.92;105113;1259;59764;-54
2024/01/20 08:49:22;;;;;;;6.40;2.50;;;;;;;-1.78;100.00;100891.26;104906;1255;60520;-55
2024/01/20 08:51:49;;;;;;;11.10;3.40;;;;;;;-1.80;100.00;100886.48;107291;1254;74214;-54
2024/01/20 08:54:17;;;;;;;3.60;2.10;;;;;;;-1.83;100.00;100884.48;105074;1259;65482;-55
2024/01/20 08:56:44;;;;;;;6.50;2.60;;;;;;;-1.86;100.00;100890.75;104979;1256;71276;-55
2024/01/20 08:59:12;;;;;;;6.00;3.00;;;;;;;-1.89;100.00;100889.30;105252;1260;60346;-54
2024/01/20 09:01:39;;;;;;;8.60;2.40;;;;;;;-1.92;100.00;100892.59;105204;1254;60537;-55
2024/01/20 09:04:06;;;;;;;7.60;2.50;;;;;;;-1.94;100.00;100891.30;104945;1259;74475;-55
2024/01/20 09:06:34;;;;;;;10.10;3.00;;;;;;;-1.97;100.00;100891.44;105537;1257;66078;-55
2024/01/20 09:09:01;;;;;;;4.60;1.80;;;;;;;-1.97;100.00;100893.19;105747;1259;70688;-55
2024/01/20 09:11:29;;;;;;;4.50;1.40;;;;;;;-1.96;100.00;100899.17;104979;1254;61441;-55
2024/01/20 09:13:57;;;;;;;2.40;1.40;;;;;;;-1.93;100.00;100907.15;104922;1253;60582;-55
2024/01/20 09:16:24;;;;;;;3.70;1.20;;;;;;;-1.89;100.00;100904.95;104983;1254;74347;-55
2024/01/20 09:18:51;;;;;;;3.90;1.80;;;;;;;-1.84;100.00;100902.57;104862;1255;66964;-55
2024/01/20 09:21:19;;;;;;;4.10;1.90;;;;;;;-1.81;100.00;100903.17;104932;1254;73085;-55
2024/01/20 09:23:46;;;;;;;3.60;1.40;;;;;;;-1.76;100.00;100902.21;105402;1259;60437;-55
2024/01/20 09:26:14;;;;;;;5.20;1.70;;;;;;;-1.75;100.00;100896.07;105136;1259;60531;-55
2024/01/20 09:28:41;;;;;;;3.20;1.20;;;;;;;-1.76;100.00;100891.30;104838;1254;74690;-55
2024/01/20 09:31:09;;;;;;;3.70;1.70;;;;;;;-1.77;100.00;100896.38;104864;1254;67427;-55
2024/01/20 09:33:36;;;;;;;3.60;1.10;;;;;;;-1.80;100.00;100895.09;105038;1254;72776;-55
2024/01/20 09:36:04;;;;;;;5.70;1.60;;;;;;;-1.84;100.00;100899.40;104903;1257;60550;-55
2024/01/20 09:38:31;;;;;;;5.70;2.30;;;;;;;-1.87;100.00;100899.17;104985;1254;60570;-55
2024/01/20 09:40:59;;;;;;;4.20;1.20;;;;;;;-1.89;100.00;100892.45;105084;1260;74376;-54
2024/01/20 09:43:26;;;;;;;2.90;1.40;;;;;;;-1.89;100.00;100894.23;104891;1257;67063;-55
2024/01/20 09:45:53;;;;;;;5.10;1.80;;;;;;;-1.88;100.00;100891.77;104781;1254;72773;-55
2024/01/20 09:48:21;;;;;;;6.10;1.50;;;;;;;-1.89;100.00;100891.59;104929;1253;60541;-55
2024/01/20 09:50:49;;;;;;;3.60;1.70;;;;;;;-1.89;100.00;100893.88;104813;1258;60437;-56
2024/01/20 09:53:16;;;;;;;5.00;1.80;;;;;;;-1.93;100.00;100888.87;104762;1254;73905;-55
2024/01/20 09:55:45;;;;;;;6.90;1.60;;;;;;;-1.97;100.00;100897.77;105022;1255;66903;-55
2024/01/20 09:58:13;;;;;;;5.50;1.90;;;;;;;-1.98;100.00;100902.14;104720;1257;72860;-55
2024/01/20 10:00:41;;;;;;;4.50;1.50;;;;;;;-1.98;100.00;100904.06;109243;1253;59235;-56
2024/01/20 10:03:09;;;;;;;3.70;1.80;;;;;;;-1.99;100.00;100900.20;109174;1255;58865;-56
2024/01/20 10:05:37;;;;;;;6.10;1.80;;;;;;;-1.99;100.00;100906.51;109196;1254;73771;-55
2024/01/20 10:08:05;;;;;;;3.20;1.70;;;;;;;-2.00;100.00;100904.91;109166;1254;66933;-56
2024/01/20 10:10:33;;;;;;;3.60;1.30;;;;;;;-2.00;100.00;100907.36;109105;1254;71539;-55
2024/01/20 10:13:01;;;;;;;5.00;1.60;;;;;;;-2.00;100.00;100907.71;107973;1254;58815;-55
2024/01/20 10:15:30;;;;;;;6.40;2.20;;;;;;;-2.01;100.00;100909.27;106238;1254;60740;-54
2024/01/20 10:18:08;;;;;;;4.10;1.60;;;;;;;-2.02;100.00;100910.31;105216;1257;74143;-55
2024/01/20 10:20:36;;;;;;;2.80;1.00;;;;;;;-2.00;100.00;100913.00;106310;1257;67254;-54
2024/01/20 10:23:05;;;;;;;2.30;1.00;;;;;;;-1.97;100.00;100916.23;105562;1258;71214;-55
2024/01/20 10:25:32;;;;;;;4.20;1.30;;;;;;;-1.91;100.00;100919.16;106385;1252;61844;-54
2024/01/20 10:28:00;;;;;;;2.10;1.20;;;;;;;-1.83;100.00;100915.96;106067;1254;60533;-53
2024/01/20 10:30:28;;;;;;;3.30;1.50;;;;;;;-1.78;100.00;100915.02;105118;1258;72612;-53
2024/01/20 10:32:58;;;;;;;4.80;1.40;;;;;;;-1.73;100.00;100910.73;105404;1259;66580;-53
2024/01/20 10:35:37;;;;;;;2.80;1.30;;;;;;;-1.71;100.00;100914.82;105283;1254;71399;-54
2024/01/20 10:38:18;;;;;;;5.10;2.40;;;;;;;-1.72;100.00;100920.44;105230;1254;60469;-52
2024/01/20 10:40:53;;;;;;;4.60;1.70;;;;;;;-1.74;100.00;100916.87;105346;1257;60548;-55
2024/01/20 10:43:20;;;;;;;7.30;1.40;;;;;;;-1.77;100.00;100911.70;105441;1253;74159;-55
2024/01/20 10:46:00;;;;;;;3.80;1.40;;;;;;;-1.77;100.00;100910.44;105278;1259;66975;-54
2024/01/20 10:48:28;;;;;;;4.20;1.50;;;;;;;-1.80;100.00;100908.48;105303;1255;71513;-52
2024/01/20 10:50:59;;;;;;;4.40;1.60;;;;;;;-1.82;100.00;100902.79;105190;1260;61829;-54
2024/01/20 10:53:27;;;;;;;4.50;1.80;;;;;;;-1.81;100.00;100902.83;105204;1259;60422;-54
2024/01/20 10:55:55;;;;;;;4.70;1.90;;;;;;;-1.80;100.00;100903.19;105148;1259;73863;-53
2024/01/20 10:58:30;;;;;;;3.10;1.50;;;;;;;-1.79;100.00;100900.93;105226;1260;65654;-53
2024/01/20 11:00:57;;;;;;;2.10;1.10;;;;;;;-1.77;100.00;100901.15;105351;1254;72707;-53
2024/01/20 11:03:25;;;;;;;2.70;1.10;;;;;;;-1.73;100.00;100899.30;104969;1255;60565;-53
2024/01/20 11:05:53;;;;;;;3.30;1.20;;;;;;;-1.70;100.00;100902.17;104909;1257;60556;-53
2024/01/20 11:08:25;;;;;;;3.90;1.10;;;;;;;-1.67;100.00;100905.90;105452;1259;73740;-54